Time;durP1;ratioP1;P1;durP2;ratioP2;P2;SDS_P1;SDS_P2;PMS_P1;PMS_P2;Temp;Humidity;BMP_temperature;BMP_pressure;BME280_temperature;BME280_humidity;BME280_pressure;Samples;Min_cycle;Max_cycle;Signal;HPM_P1;HPM_P2
2022/04/08 00:00:58;;;;;;;1.00;0.50;;;23.40;38.70;;;;;;4994043;28;20402;-63
2022/04/08 00:03:27;;;;;;;0.90;0.60;;;23.40;38.70;;;;;;4994118;28;20890;-64
2022/04/08 00:05:54;;;;;;;0.80;0.60;;;23.40;38.80;;;;;;4993748;28;20464;-63
2022/04/08 00:08:20;;;;;;;0.95;0.50;;;23.40;38.80;;;;;;4994101;28;20871;-63
2022/04/08 00:10:46;;;;;;;0.80;0.50;;;23.30;38.70;;;;;;4994027;28;20898;-63
2022/04/08 00:13:11;;;;;;;0.73;0.50;;;23.40;38.90;;;;;;4994053;28;20467;-63
2022/04/08 00:15:38;;;;;;;0.90;0.40;;;23.30;38.90;;;;;;4993703;28;20472;-64
2022/04/08 00:18:04;;;;;;;1.00;0.60;;;23.30;38.90;;;;;;4993257;28;20481;-64
2022/04/08 00:20:32;;;;;;;0.70;0.40;;;23.30;38.80;;;;;;4993846;28;20482;-64
2022/04/08 00:22:58;;;;;;;0.80;0.60;;;23.30;38.80;;;;;;4993834;28;20743;-63
2022/04/08 00:25:24;;;;;;;0.75;0.60;;;23.30;38.90;;;;;;4993624;28;20453;-64
2022/04/08 00:27:50;;;;;;;1.05;0.40;;;23.30;38.70;;;;;;4993028;28;20403;-63
2022/04/08 00:30:16;;;;;;;0.65;0.40;;;23.30;38.80;;;;;;4993733;28;20413;-64
2022/04/08 00:32:41;;;;;;;0.83;0.50;;;23.30;38.70;;;;;;4993616;28;20383;-63
2022/04/08 00:35:08;;;;;;;1.00;0.50;;;23.30;38.80;;;;;;4993650;28;20799;-64
2022/04/08 00:37:34;;;;;;;0.68;0.40;;;23.30;39.00;;;;;;4993342;28;20477;-64
2022/04/08 00:40:00;;;;;;;0.80;0.60;;;23.30;39.00;;;;;;4993063;28;20397;-64
2022/04/08 00:42:26;;;;;;;0.75;0.52;;;23.40;38.90;;;;;;4993465;28;20863;-63
2022/04/08 00:44:52;;;;;;;0.63;0.60;;;23.40;38.60;;;;;;4993328;28;20426;-64
2022/04/08 00:47:17;;;;;;;0.80;0.63;;;23.50;38.60;;;;;;4993385;28;20391;-64
2022/04/08 00:49:44;;;;;;;1.10;0.60;;;23.50;38.40;;;;;;4992826;28;20426;-64
2022/04/08 00:52:10;;;;;;;0.60;0.50;;;23.50;38.50;;;;;;4993354;28;20953;-64
2022/04/08 00:54:37;;;;;;;0.75;0.47;;;23.50;38.20;;;;;;4993218;28;20477;-64
2022/04/08 00:57:04;;;;;;;0.50;0.40;;;23.50;38.10;;;;;;4993215;28;20983;-64
2022/04/08 00:59:30;;;;;;;0.60;0.50;;;23.50;38.10;;;;;;4993048;28;20497;-64
2022/04/08 01:01:58;;;;;;;0.70;0.60;;;23.50;38.00;;;;;;4992462;28;20494;-64
2022/04/08 01:04:27;;;;;;;0.77;0.60;;;23.60;38.20;;;;;;4992945;28;20478;-64
2022/04/08 01:06:53;;;;;;;0.68;0.60;;;23.60;38.30;;;;;;4993049;28;20387;-63
2022/04/08 01:09:19;;;;;;;0.60;0.40;;;23.60;38.30;;;;;;4992882;28;20399;-63
2022/04/08 01:11:45;;;;;;;0.60;0.50;;;23.60;38.40;;;;;;4992479;28;20398;-64
2022/04/08 01:14:12;;;;;;;0.50;0.45;;;23.60;38.00;;;;;;4992716;28;20386;-64
2022/04/08 01:16:39;;;;;;;0.90;0.50;;;23.60;38.00;;;;;;4992786;28;20394;-64
2022/04/08 01:19:05;;;;;;;1.17;0.70;;;23.60;38.00;;;;;;4992917;28;20394;-64
2022/04/08 01:21:33;;;;;;;0.40;0.40;;;23.60;38.00;;;;;;4991079;28;20398;-64
2022/04/08 01:24:01;;;;;;;0.88;0.60;;;23.60;37.70;;;;;;4992270;28;20493;-63
2022/04/08 01:26:27;;;;;;;0.60;0.50;;;23.60;37.80;;;;;;4992414;28;20398;-64
2022/04/08 01:28:55;;;;;;;0.70;0.55;;;23.60;37.90;;;;;;4992732;28;20383;-64
2022/04/08 01:31:21;;;;;;;0.63;0.50;;;23.60;37.80;;;;;;4992491;28;20398;-64
2022/04/08 01:33:47;;;;;;;0.73;0.60;;;23.60;37.80;;;;;;4992228;28;20387;-64
2022/04/08 01:36:13;;;;;;;0.88;0.50;;;23.60;37.80;;;;;;4992613;28;20391;-64
2022/04/08 01:38:39;;;;;;;0.80;0.60;;;23.70;37.70;;;;;;4992382;28;20878;-64
2022/04/08 01:41:04;;;;;;;0.50;0.50;;;23.60;37.70;;;;;;4992241;28;20871;-64
2022/04/08 01:43:30;;;;;;;1.00;0.50;;;23.60;37.40;;;;;;4992208;28;20398;-64
2022/04/08 01:45:55;;;;;;;0.75;0.50;;;23.60;37.70;;;;;;4991901;28;20394;-64
2022/04/08 01:48:21;;;;;;;0.75;0.55;;;23.60;37.70;;;;;;4992286;28;20732;-64
2022/04/08 01:50:47;;;;;;;0.50;0.40;;;23.70;37.40;;;;;;4991098;28;20402;-64
2022/04/08 01:53:15;;;;;;;0.60;0.50;;;23.60;37.60;;;;;;4992289;28;20397;-64
2022/04/08 01:55:42;;;;;;;0.60;0.40;;;23.60;37.60;;;;;;4991941;28;20399;-64
2022/04/08 01:58:07;;;;;;;0.50;0.43;;;23.60;37.50;;;;;;4992012;28;20393;-64
2022/04/08 02:00:33;;;;;;;0.40;0.40;;;23.60;37.50;;;;;;4992015;28;20398;-64
2022/04/08 02:03:00;;;;;;;0.57;0.50;;;23.60;37.20;;;;;;4992182;28;20453;-64
2022/04/08 02:05:25;;;;;;;1.25;0.50;;;23.70;37.30;;;;;;4992071;28;20453;-64
2022/04/08 02:07:53;;;;;;;0.60;0.40;;;23.60;37.20;;;;;;4991725;28;20383;-64
2022/04/08 02:10:19;;;;;;;1.00;0.60;;;23.60;37.20;;;;;;4994141;28;20398;-64
2022/04/08 02:12:45;;;;;;;0.50;0.40;;;23.70;37.10;;;;;;4998331;28;20387;-63
2022/04/08 02:15:11;;;;;;;0.55;0.50;;;23.60;37.10;;;;;;4998627;28;20444;-64
2022/04/08 02:17:37;;;;;;;1.02;0.60;;;23.60;37.10;;;;;;4998552;28;20509;-64
2022/04/08 02:20:04;;;;;;;0.60;0.45;;;23.60;37.20;;;;;;4998135;28;20951;-64
2022/04/08 02:22:31;;;;;;;0.90;0.40;;;23.60;37.20;;;;;;4998512;28;20452;-64
2022/04/08 02:24:58;;;;;;;1.08;0.40;;;23.60;37.30;;;;;;4998494;28;20477;-64
2022/04/08 02:27:26;;;;;;;0.50;0.40;;;23.60;36.80;;;;;;4997742;28;20386;-64
2022/04/08 02:29:52;;;;;;;0.50;0.40;;;23.60;36.70;;;;;;4997793;28;20578;-64
2022/04/08 02:32:18;;;;;;;0.77;0.30;;;23.60;36.90;;;;;;4998423;28;20926;-64
2022/04/08 02:34:44;;;;;;;0.57;0.50;;;23.60;36.90;;;;;;4998461;28;20394;-63
2022/04/08 02:37:09;;;;;;;0.40;0.40;;;23.60;36.80;;;;;;4998208;28;20393;-63
2022/04/08 02:39:35;;;;;;;0.40;0.40;;;23.60;36.90;;;;;;4998401;28;20394;-64
2022/04/08 02:42:01;;;;;;;0.53;0.50;;;23.60;36.90;;;;;;4997684;28;20409;-64
2022/04/08 02:44:30;;;;;;;0.50;0.40;;;23.60;36.80;;;;;;4997995;28;20857;-64
2022/04/08 02:46:56;;;;;;;0.55;0.40;;;23.60;36.80;;;;;;4998319;28;20391;-64
2022/04/08 02:49:22;;;;;;;0.50;0.40;;;23.60;37.00;;;;;;4997048;28;20460;-64
2022/04/08 02:51:48;;;;;;;0.70;0.50;;;23.60;36.80;;;;;;4998036;28;20390;-64
2022/04/08 02:54:15;;;;;;;0.50;0.40;;;23.60;36.90;;;;;;4997557;28;21270;-64
2022/04/08 02:56:41;;;;;;;0.60;0.40;;;23.60;37.00;;;;;;4998145;28;20397;-64
2022/04/08 02:59:08;;;;;;;1.90;0.50;;;23.60;36.70;;;;;;4998327;28;20394;-64
2022/04/08 03:01:33;;;;;;;0.43;0.32;;;23.60;36.90;;;;;;4997878;28;20460;-64
2022/04/08 03:03:59;;;;;;;0.50;0.30;;;23.60;37.10;;;;;;4996317;28;20422;-65
2022/04/08 03:06:26;;;;;;;0.60;0.43;;;23.60;36.90;;;;;;4996882;28;20425;-64
2022/04/08 03:08:52;;;;;;;0.60;0.30;;;23.60;37.00;;;;;;4998120;28;20383;-64
2022/04/08 03:11:18;;;;;;;0.70;0.40;;;23.60;36.70;;;;;;4997840;28;20403;-64
2022/04/08 03:13:43;;;;;;;0.70;0.63;;;23.60;37.00;;;;;;5012817;28;20453;-64
2022/04/08 03:16:09;;;;;;;0.55;0.40;;;23.60;36.80;;;;;;4996495;28;20398;-63
2022/04/08 03:18:35;;;;;;;1.10;0.45;;;23.60;36.60;;;;;;4998024;28;20391;-63
2022/04/08 03:21:00;;;;;;;0.67;0.50;;;23.60;36.80;;;;;;4995384;28;20906;-64
2022/04/08 03:23:26;;;;;;;0.40;0.40;;;23.60;36.60;;;;;;4994199;28;20452;-63
2022/04/08 03:25:51;;;;;;;0.70;0.30;;;23.60;36.70;;;;;;4993324;28;20406;-64
2022/04/08 03:28:17;;;;;;;0.50;0.40;;;23.60;36.70;;;;;;4993977;28;20897;-64
2022/04/08 03:30:43;;;;;;;1.15;0.45;;;23.60;36.70;;;;;;4994843;28;20394;-64
2022/04/08 03:33:08;;;;;;;1.00;0.40;;;23.60;36.60;;;;;;4994844;28;20374;-63
2022/04/08 03:35:34;;;;;;;0.40;0.30;;;23.60;36.80;;;;;;4994471;28;20394;-64
2022/04/08 03:38:00;;;;;;;0.60;0.40;;;23.60;36.80;;;;;;4994151;28;20949;-64
2022/04/08 03:40:26;;;;;;;0.90;0.50;;;23.60;36.80;;;;;;4994402;28;20390;-64
2022/04/08 03:42:52;;;;;;;0.80;0.50;;;23.50;36.70;;;;;;4994522;28;20395;-64
2022/04/08 03:45:17;;;;;;;0.80;0.43;;;23.60;36.50;;;;;;4994570;28;20484;-64
2022/04/08 03:47:43;;;;;;;0.85;0.50;;;23.60;36.70;;;;;;4994471;28;20762;-64
2022/04/08 03:50:09;;;;;;;1.00;0.60;;;23.60;36.60;;;;;;4993959;28;20398;-64
2022/04/08 03:52:35;;;;;;;2.28;0.70;;;23.60;36.80;;;;;;4994208;28;20767;-64
2022/04/08 03:55:02;;;;;;;2.60;0.60;;;23.60;37.30;;;;;;4994402;28;20743;-64
2022/04/08 03:57:28;;;;;;;3.80;0.80;;;23.70;37.80;;;;;;4994261;28;20426;-65
2022/04/08 03:59:55;;;;;;;4.60;1.17;;;23.70;38.90;;;;;;4992610;28;20453;-65
2022/04/08 04:02:21;;;;;;;2.80;0.80;;;23.70;40.00;;;;;;4993843;28;20418;-65
2022/04/08 04:04:47;;;;;;;1.20;0.70;;;23.70;39.60;;;;;;5009144;28;20523;-64
2022/04/08 04:07:12;;;;;;;3.03;0.73;;;23.70;37.70;;;;;;4992934;28;20402;-64
2022/04/08 04:09:38;;;;;;;2.53;0.90;;;23.70;38.10;;;;;;4992531;28;20405;-64
2022/04/08 04:12:04;;;;;;;1.90;1.10;;;23.70;38.90;;;;;;4993560;28;20390;-64
2022/04/08 04:14:30;;;;;;;2.10;0.85;;;23.70;38.70;;;;;;4993912;28;20917;-65
2022/04/08 04:16:55;;;;;;;3.40;0.80;;;23.70;38.90;;;;;;4993694;28;20391;-64
2022/04/08 04:19:21;;;;;;;1.70;0.70;;;23.80;38.60;;;;;;4993944;28;20402;-64
2022/04/08 04:21:50;;;;;;;1.80;0.90;;;23.80;38.40;;;;;;4992375;28;20403;-64
2022/04/08 04:24:16;;;;;;;1.70;0.90;;;23.80;38.30;;;;;;4993551;28;20414;-64
2022/04/08 04:26:41;;;;;;;2.03;0.90;;;23.80;38.30;;;;;;4992195;28;20402;-64
2022/04/08 04:29:07;;;;;;;1.33;0.60;;;23.80;38.30;;;;;;4993568;28;20881;-64
2022/04/08 04:31:32;;;;;;;1.80;0.80;;;23.80;38.20;;;;;;4996617;28;20394;-64
2022/04/08 04:33:58;;;;;;;2.07;0.60;;;23.80;38.60;;;;;;5012275;28;20403;-64
2022/04/08 04:36:24;;;;;;;1.35;0.60;;;23.80;37.80;;;;;;5007206;28;20727;-64
2022/04/08 04:38:50;;;;;;;2.40;0.80;;;23.80;38.00;;;;;;5003753;28;20415;-64
2022/04/08 04:41:17;;;;;;;1.90;0.80;;;23.80;38.40;;;;;;5004899;28;20393;-65
2022/04/08 04:43:43;;;;;;;2.95;0.75;;;23.80;38.40;;;;;;5001821;28;20921;-64
2022/04/08 04:46:09;;;;;;;2.10;0.53;;;23.80;38.30;;;;;;5005939;28;20448;-64
2022/04/08 04:48:34;;;;;;;3.25;0.70;;;23.80;38.90;;;;;;5009955;28;20403;-64
2022/04/08 04:51:00;;;;;;;2.50;0.60;;;23.80;38.20;;;;;;5011645;28;20788;-64
2022/04/08 04:53:26;;;;;;;1.95;0.73;;;23.90;38.30;;;;;;5027253;28;20512;-65
2022/04/08 04:55:51;;;;;;;1.60;0.90;;;23.80;38.10;;;;;;5007047;28;20483;-65
2022/04/08 04:58:17;;;;;;;1.60;0.50;;;23.80;38.10;;;;;;5012661;28;20893;-65
2022/04/08 05:00:43;;;;;;;4.73;0.80;;;23.80;37.50;;;;;;5011292;28;20417;-65
2022/04/08 05:03:08;;;;;;;4.50;0.60;;;23.80;37.80;;;;;;5013188;28;20901;-64
2022/04/08 05:05:35;;;;;;;5.10;0.70;;;23.80;37.80;;;;;;5012044;28;20429;-65
2022/04/08 05:08:04;;;;;;;3.33;0.70;;;23.80;37.80;;;;;;5027731;28;20945;-64
2022/04/08 05:10:33;;;;;;;3.97;0.70;;;23.80;37.80;;;;;;5012553;28;20456;-65
2022/04/08 05:12:59;;;;;;;5.85;0.90;;;23.80;38.00;;;;;;5010409;28;20812;-65
2022/04/08 05:15:26;;;;;;;4.25;0.70;;;23.80;39.20;;;;;;5011833;28;20397;-65
2022/04/08 05:17:52;;;;;;;4.47;0.70;;;23.80;39.60;;;;;;5011884;28;20417;-65
2022/04/08 05:20:17;;;;;;;4.70;0.70;;;23.80;39.50;;;;;;5012065;28;20475;-65
2022/04/08 05:22:43;;;;;;;3.60;0.60;;;23.80;39.20;;;;;;5012304;28;20393;-65
2022/04/08 05:25:10;;;;;;;3.33;0.77;;;23.80;38.90;;;;;;5012221;28;20884;-65
2022/04/08 05:27:41;;;;;;;3.67;0.60;;;23.80;38.80;;;;;;5012127;28;20404;-65
2022/04/08 05:30:18;;;;;;;2.75;0.50;;;23.80;38.20;;;;;;5011852;28;20479;-66
2022/04/08 05:32:47;;;;;;;2.47;0.63;;;23.80;38.60;;;;;;5012692;28;20420;-65
2022/04/08 05:35:16;;;;;;;4.45;0.90;;;23.80;37.80;;;;;;5012073;28;20389;-65
2022/04/08 05:37:45;;;;;;;6.50;0.73;;;23.80;38.20;;;;;;5012122;28;20950;-65
2022/04/08 05:40:16;;;;;;;4.13;0.80;;;23.80;38.30;;;;;;5011822;28;20404;-64
2022/04/08 05:42:44;;;;;;;4.28;0.68;;;23.80;38.40;;;;;;5012193;28;20436;-62
2022/04/08 05:45:10;;;;;;;8.43;0.80;;;23.90;38.40;;;;;;5011283;28;20427;-64
2022/04/08 05:47:36;;;;;;;4.40;0.70;;;23.80;38.00;;;;;;5011810;28;20385;-63
2022/04/08 05:50:03;;;;;;;4.45;0.60;;;23.80;38.20;;;;;;5011936;28;20388;-63
2022/04/08 05:52:29;;;;;;;1.67;0.80;;;23.80;38.20;;;;;;5011916;28;20389;-65
2022/04/08 05:54:54;;;;;;;4.17;0.70;;;23.80;38.10;;;;;;5011886;28;20475;-65
2022/04/08 05:57:20;;;;;;;4.37;0.80;;;23.80;38.60;;;;;;5011858;28;20484;-65
2022/04/08 05:59:47;;;;;;;2.97;0.80;;;23.80;38.10;;;;;;5011913;28;20463;-65
2022/04/08 06:02:12;;;;;;;4.78;0.80;;;23.80;38.00;;;;;;5011250;28;20495;-65
2022/04/08 06:04:38;;;;;;;2.60;1.10;;;23.80;38.60;;;;;;5011335;28;20848;-65
2022/04/08 06:07:04;;;;;;;2.77;0.80;;;23.80;38.50;;;;;;5011633;28;20392;-65
2022/04/08 06:09:29;;;;;;;3.85;1.52;;;23.80;38.10;;;;;;5011674;28;20405;-65
2022/04/08 06:11:55;;;;;;;2.60;1.63;;;23.80;37.10;;;;;;5011421;28;20404;-65
2022/04/08 06:14:21;;;;;;;4.43;1.90;;;23.80;37.10;;;;;;5011227;28;20427;-65
2022/04/08 06:16:47;;;;;;;3.70;1.70;;;23.80;36.90;;;;;;5011701;28;20393;-65
2022/04/08 06:19:12;;;;;;;3.50;1.50;;;23.80;36.80;;;;;;5011512;28;20400;-65
2022/04/08 06:21:38;;;;;;;3.40;1.60;;;23.80;36.90;;;;;;5011545;28;20435;-65
2022/04/08 06:24:04;;;;;;;3.33;1.40;;;23.80;36.80;;;;;;5011156;28;20466;-65
2022/04/08 06:26:32;;;;;;;3.33;1.60;;;23.80;36.80;;;;;;5011539;28;20400;-65
2022/04/08 06:28:58;;;;;;;3.45;1.50;;;23.80;36.80;;;;;;5011615;28;20415;-65
2022/04/08 06:31:28;;;;;;;3.03;1.40;;;23.80;36.70;;;;;;5011361;28;20396;-65
2022/04/08 06:33:54;;;;;;;3.42;1.60;;;23.80;36.70;;;;;;5011305;28;20475;-65
2022/04/08 06:36:20;;;;;;;2.77;1.43;;;23.80;36.60;;;;;;5011164;28;20503;-65
2022/04/08 06:38:46;;;;;;;2.63;1.20;;;23.80;36.60;;;;;;5011476;28;20385;-65
2022/04/08 06:41:12;;;;;;;2.78;1.30;;;23.80;36.60;;;;;;5011339;28;20800;-65
2022/04/08 06:43:37;;;;;;;2.77;1.50;;;23.80;36.60;;;;;;5011341;28;20423;-65
2022/04/08 06:46:03;;;;;;;1.85;1.30;;;23.70;36.50;;;;;;5010769;28;20869;-65
2022/04/08 06:48:28;;;;;;;2.88;1.45;;;23.80;36.50;;;;;;5011373;28;20393;-65
2022/04/08 06:50:54;;;;;;;3.40;2.00;;;23.70;36.40;;;;;;5011276;28;20404;-65
2022/04/08 06:53:20;;;;;;;4.28;2.30;;;23.70;36.40;;;;;;5011186;28;20391;-65
2022/04/08 06:55:45;;;;;;;4.40;2.40;;;23.70;36.40;;;;;;5011789;28;20443;-65
2022/04/08 06:58:12;;;;;;;4.47;2.53;;;23.70;36.50;;;;;;5014376;28;20438;-65
2022/04/08 07:00:38;;;;;;;4.13;2.30;;;23.60;36.60;;;;;;5014646;28;20482;-65
2022/04/08 07:03:03;;;;;;;4.30;2.40;;;23.60;36.90;;;;;;5014968;28;20860;-65
2022/04/08 07:05:29;;;;;;;6.05;2.47;;;23.70;37.30;;;;;;5015222;28;20409;-65
2022/04/08 07:07:55;;;;;;;5.95;2.92;;;23.80;37.60;;;;;;5014584;28;20879;-65
2022/04/08 07:10:21;;;;;;;5.60;2.80;;;23.80;37.70;;;;;;5006635;28;20396;-65
2022/04/08 07:12:46;;;;;;;5.95;3.22;;;23.80;38.30;;;;;;5004904;28;20452;-65
2022/04/08 07:15:12;;;;;;;5.90;2.63;;;23.90;38.80;;;;;;5002832;28;20395;-66
2022/04/08 07:17:38;;;;;;;6.20;3.53;;;23.90;38.90;;;;;;5003711;28;20384;-66
2022/04/08 07:20:05;;;;;;;5.72;3.25;;;23.90;38.80;;;;;;5006821;28;20878;-65
2022/04/08 07:22:32;;;;;;;5.40;2.90;;;23.90;38.90;;;;;;5004971;28;20421;-65
2022/04/08 07:24:57;;;;;;;5.40;3.10;;;23.90;38.90;;;;;;4999639;28;20943;-65
2022/04/08 07:27:24;;;;;;;5.65;2.75;;;24.00;38.80;;;;;;5007639;28;20402;-66
2022/04/08 07:29:51;;;;;;;5.97;2.50;;;24.00;38.80;;;;;;5004692;28;20854;-65
2022/04/08 07:32:20;;;;;;;5.32;2.40;;;23.90;38.50;;;;;;4994439;28;20392;-65
2022/04/08 07:34:51;;;;;;;5.72;2.10;;;23.90;37.60;;;;;;4994786;28;20501;-65
2022/04/08 07:37:32;;;;;;;6.60;2.25;;;23.80;38.30;;;;;;4994612;28;20394;-65
2022/04/08 07:39:58;;;;;;;5.72;2.47;;;23.80;39.30;;;;;;4994311;28;20395;-66
2022/04/08 07:42:27;;;;;;;5.13;2.30;;;23.90;39.40;;;;;;5000500;28;20385;-65
2022/04/08 07:44:53;;;;;;;6.25;2.30;;;23.90;38.90;;;;;;5013726;28;20511;-65
2022/04/08 07:47:20;;;;;;;5.68;2.22;;;23.90;39.10;;;;;;5029210;28;20400;-65
2022/04/08 07:49:47;;;;;;;4.50;2.00;;;23.90;38.80;;;;;;5014011;28;20912;-64
2022/04/08 07:52:12;;;;;;;4.35;2.03;;;23.90;39.50;;;;;;5013267;28;20397;-65
2022/04/08 07:54:38;;;;;;;5.72;2.13;;;23.90;39.50;;;;;;5013970;28;20733;-64
2022/04/08 07:57:04;;;;;;;5.18;2.00;;;23.90;39.10;;;;;;5013904;28;20907;-65
2022/04/08 07:59:29;;;;;;;4.97;1.80;;;23.90;39.10;;;;;;5013705;28;20784;-64
2022/04/08 08:01:55;;;;;;;4.95;1.88;;;23.90;39.10;;;;;;5013522;28;20417;-65
2022/04/08 08:04:21;;;;;;;3.60;1.90;;;23.90;38.80;;;;;;5013229;28;20427;-65
2022/04/08 08:06:47;;;;;;;6.07;2.03;;;23.90;38.50;;;;;;5013673;28;20397;-65
2022/04/08 08:09:13;;;;;;;4.70;1.98;;;23.90;38.90;;;;;;5012986;28;20408;-65
2022/04/08 08:11:39;;;;;;;6.07;1.77;;;23.90;39.00;;;;;;5013340;28;20401;-68
2022/04/08 08:14:05;;;;;;;3.47;1.90;;;23.90;38.90;;;;;;5013513;28;20397;-66
2022/04/08 08:16:31;;;;;;;3.20;1.85;;;23.90;38.80;;;;;;5028372;28;20392;-65
2022/04/08 08:18:57;;;;;;;3.10;1.60;;;24.00;38.40;;;;;;5013442;28;20397;-66
2022/04/08 08:21:25;;;;;;;4.82;1.80;;;23.90;38.80;;;;;;5012868;28;20824;-65
2022/04/08 08:23:52;;;;;;;4.68;1.88;;;23.90;38.50;;;;;;5012844;28;20449;-65
2022/04/08 08:26:19;;;;;;;3.70;1.70;;;23.90;38.10;;;;;;5012151;28;20397;-65
2022/04/08 08:28:46;;;;;;;4.90;1.50;;;23.90;37.70;;;;;;5014301;28;20423;-66
2022/04/08 08:31:11;;;;;;;3.58;1.75;;;23.90;37.80;;;;;;5013267;28;20424;-65
2022/04/08 08:33:39;;;;;;;3.10;1.40;;;23.80;37.70;;;;;;5013033;28;20990;-65
2022/04/08 08:36:06;;;;;;;2.90;1.40;;;23.80;37.40;;;;;;5012966;28;20480;-65
2022/04/08 08:38:32;;;;;;;2.85;1.30;;;23.80;37.40;;;;;;5013126;28;20484;-65
2022/04/08 08:40:58;;;;;;;2.30;1.40;;;23.80;37.30;;;;;;5028308;28;20408;-65
2022/04/08 08:43:23;;;;;;;2.83;1.50;;;23.80;37.40;;;;;;5012985;28;20393;-66
2022/04/08 08:45:49;;;;;;;3.65;1.17;;;23.80;37.10;;;;;;5012924;28;20916;-65
2022/04/08 08:48:16;;;;;;;3.10;1.35;;;23.80;36.90;;;;;;5012542;28;20388;-65
2022/04/08 08:50:50;;;;;;;3.50;1.52;;;23.80;36.90;;;;;;5013009;28;20385;-65
2022/04/08 08:53:20;;;;;;;3.17;1.40;;;23.80;36.80;;;;;;5012812;28;20431;-65
2022/04/08 08:55:49;;;;;;;3.87;1.20;;;23.80;36.80;;;;;;5011689;28;20979;-65
2022/04/08 08:58:16;;;;;;;2.20;1.30;;;23.80;36.70;;;;;;5012045;28;20386;-65
2022/04/08 09:00:42;;;;;;;2.00;1.20;;;23.80;36.80;;;;;;5012525;28;20400;-65
2022/04/08 09:03:09;;;;;;;2.23;1.33;;;23.80;36.70;;;;;;5027931;28;20404;-65
2022/04/08 09:05:47;;;;;;;3.00;1.48;;;23.80;36.60;;;;;;5012450;28;20424;-64
2022/04/08 09:08:14;;;;;;;2.08;1.35;;;23.80;36.60;;;;;;5011934;28;20389;-65
2022/04/08 09:10:43;;;;;;;2.25;1.30;;;23.80;36.70;;;;;;5012438;28;20479;-65
2022/04/08 09:13:10;;;;;;;1.88;1.20;;;23.80;36.90;;;;;;5009756;28;20393;-66
2022/04/08 09:15:40;;;;;;;2.92;1.13;;;23.80;36.80;;;;;;5001052;28;20385;-65
2022/04/08 09:18:10;;;;;;;2.88;1.20;;;23.70;36.70;;;;;;5000797;28;20492;-65
2022/04/08 09:20:50;;;;;;;2.70;1.00;;;23.80;36.70;;;;;;4999212;28;20874;-65
2022/04/08 09:23:19;;;;;;;5.00;1.58;;;23.70;36.80;;;;;;5000221;28;20457;-65
2022/04/08 09:25:49;;;;;;;2.00;1.08;;;23.80;36.80;;;;;;5001336;28;20452;-65
2022/04/08 09:28:17;;;;;;;1.67;1.02;;;23.70;37.20;;;;;;5001658;28;20389;-65
2022/04/08 09:30:55;;;;;;;2.17;1.40;;;23.70;36.60;;;;;;5000404;28;20704;-64
2022/04/08 09:33:23;;;;;;;3.22;1.17;;;23.80;36.80;;;;;;5002259;28;20385;-65
2022/04/08 09:35:53;;;;;;;2.67;1.10;;;23.70;37.20;;;;;;5001759;28;20787;-65
2022/04/08 09:38:21;;;;;;;2.60;1.05;;;23.70;37.30;;;;;;4999154;28;20478;-64
2022/04/08 09:40:47;;;;;;;3.22;1.20;;;23.80;37.40;;;;;;5000881;28;20411;-65
2022/04/08 09:43:14;;;;;;;3.20;1.03;;;23.80;37.10;;;;;;5002152;28;20403;-65
2022/04/08 09:45:40;;;;;;;3.63;1.10;;;23.80;37.70;;;;;;5000170;28;20418;-65
2022/04/08 09:48:07;;;;;;;2.58;0.90;;;23.90;37.50;;;;;;4999765;28;20394;-65
2022/04/08 09:50:34;;;;;;;3.00;1.00;;;23.80;38.10;;;;;;4999876;28;20484;-66
2022/04/08 09:53:04;;;;;;;2.42;0.98;;;23.90;37.50;;;;;;5000394;28;20394;-65
2022/04/08 09:55:30;;;;;;;3.35;1.10;;;23.90;37.40;;;;;;5000909;28;20467;-66
2022/04/08 09:57:58;;;;;;;3.30;0.95;;;23.90;37.80;;;;;;5002154;28;20420;-66
2022/04/08 10:00:25;;;;;;;2.97;0.98;;;23.80;37.80;;;;;;4999936;28;20492;-66
2022/04/08 10:02:54;;;;;;;2.85;1.00;;;23.90;38.10;;;;;;5000594;28;20389;-67
2022/04/08 10:05:22;;;;;;;2.40;1.00;;;23.90;37.40;;;;;;5002944;28;20424;-66
2022/04/08 10:07:52;;;;;;;3.35;0.95;;;23.90;37.40;;;;;;5002401;28;20381;-66
2022/04/08 10:10:33;;;;;;;3.10;0.88;;;23.90;37.10;;;;;;5001204;28;20389;-65
2022/04/08 10:13:13;;;;;;;2.65;0.93;;;23.90;37.20;;;;;;5003407;28;20407;-65
2022/04/08 10:15:42;;;;;;;2.80;0.90;;;23.90;37.30;;;;;;4994447;28;20395;-65
2022/04/08 10:18:08;;;;;;;2.83;0.80;;;23.90;37.00;;;;;;4991894;28;20395;-65
2022/04/08 10:20:36;;;;;;;3.03;0.98;;;23.90;37.00;;;;;;4991617;28;20417;-65
2022/04/08 10:23:10;;;;;;;3.20;0.90;;;23.90;36.90;;;;;;4991876;28;20453;-65
2022/04/08 10:25:40;;;;;;;6.60;0.90;;;23.90;36.70;;;;;;4992113;28;20422;-64
2022/04/08 10:28:08;;;;;;;4.20;0.93;;;23.90;36.70;;;;;;4991881;28;20433;-65
2022/04/08 10:30:48;;;;;;;2.83;0.80;;;23.90;36.70;;;;;;4992395;28;20960;-65
2022/04/08 10:33:24;;;;;;;2.75;0.90;;;23.80;36.60;;;;;;4997188;28;20391;-64
2022/04/08 10:35:55;;;;;;;3.80;0.70;;;23.80;36.60;;;;;;4995957;28;20397;-64
2022/04/08 10:38:21;;;;;;;2.53;0.93;;;23.80;36.70;;;;;;4993996;28;20457;-65
2022/04/08 10:40:56;;;;;;;2.95;1.00;;;23.80;36.70;;;;;;4995666;28;20398;-64
2022/04/08 10:43:23;;;;;;;2.38;0.88;;;23.80;36.80;;;;;;4995638;28;20402;-64
2022/04/08 10:45:56;;;;;;;2.42;0.82;;;23.80;36.70;;;;;;4995729;28;20414;-65
2022/04/08 10:48:33;;;;;;;2.60;0.80;;;23.80;36.70;;;;;;4995540;28;20390;-64
2022/04/08 10:51:05;;;;;;;2.58;0.80;;;23.80;36.70;;;;;;4994368;28;20395;-64
2022/04/08 10:53:34;;;;;;;2.50;0.88;;;23.80;36.60;;;;;;4995235;28;20405;-65
2022/04/08 10:56:12;;;;;;;2.65;0.60;;;23.90;36.60;;;;;;4995154;28;20398;-65
2022/04/08 10:58:46;;;;;;;1.20;0.60;;;23.90;36.70;;;;;;4995229;28;20402;-64
2022/04/08 11:01:19;;;;;;;2.10;0.73;;;23.90;36.60;;;;;;4995528;28;20894;-64
2022/04/08 11:03:55;;;;;;;1.63;0.70;;;23.90;36.50;;;;;;4995384;28;20497;-64
2022/04/08 11:06:24;;;;;;;2.38;0.85;;;23.90;36.70;;;;;;4994862;28;20843;-65
2022/04/08 11:08:50;;;;;;;1.60;0.80;;;23.90;36.70;;;;;;4995338;28;20425;-65
2022/04/08 11:11:16;;;;;;;1.55;0.70;;;23.90;36.60;;;;;;4995246;28;20840;-65
2022/04/08 11:13:42;;;;;;;1.88;0.70;;;24.00;36.70;;;;;;4995217;28;20390;-65
2022/04/08 11:16:08;;;;;;;1.27;0.70;;;24.00;36.80;;;;;;4994886;28;20409;-65
2022/04/08 11:18:34;;;;;;;4.05;0.90;;;23.90;37.30;;;;;;4994903;28;20745;-65
2022/04/08 11:21:00;;;;;;;2.97;1.00;;;23.80;37.10;;;;;;4995239;28;20404;-64
2022/04/08 11:23:28;;;;;;;1.57;0.67;;;23.80;37.30;;;;;;4995092;28;20585;-65
2022/04/08 11:25:54;;;;;;;2.83;0.70;;;23.90;37.20;;;;;;4993643;28;20418;-64
2022/04/08 11:28:22;;;;;;;1.80;0.70;;;23.90;37.20;;;;;;5009754;28;20398;-65
2022/04/08 11:30:55;;;;;;;2.70;0.70;;;24.00;37.10;;;;;;4995306;28;20434;-64
2022/04/08 11:33:21;;;;;;;2.88;0.68;;;23.90;36.70;;;;;;4994688;28;20890;-64
2022/04/08 11:35:53;;;;;;;2.80;0.70;;;23.90;36.30;;;;;;4993687;28;20425;-64
2022/04/08 11:38:22;;;;;;;2.33;0.68;;;23.90;36.40;;;;;;4995330;28;20394;-65
2022/04/08 11:40:49;;;;;;;4.70;0.85;;;23.90;36.30;;;;;;4993608;28;20834;-64
2022/04/08 11:43:18;;;;;;;3.38;0.80;;;23.90;36.30;;;;;;4993456;28;20418;-64
2022/04/08 11:45:45;;;;;;;5.50;0.85;;;23.90;36.90;;;;;;4995174;28;20427;-65
2022/04/08 11:48:13;;;;;;;8.20;1.00;;;23.80;38.30;;;;;;4994903;28;20398;-64
2022/04/08 11:50:40;;;;;;;4.60;1.10;;;23.90;38.20;;;;;;4993922;28;20485;-65
2022/04/08 11:53:30;;;;;;;5.45;0.73;;;23.90;38.10;;;;;;4993674;28;20390;-66
2022/04/08 11:55:57;;;;;;;2.25;0.65;;;24.00;38.10;;;;;;4994610;28;20387;-65
2022/04/08 11:58:24;;;;;;;3.23;0.80;;;24.00;37.60;;;;;;5003121;28;20502;-65
2022/04/08 12:00:51;;;;;;;3.72;0.80;;;24.00;37.60;;;;;;5002193;28;20433;-65
2022/04/08 12:03:22;;;;;;;1.75;0.70;;;24.00;38.20;;;;;;5004394;28;20800;-64
2022/04/08 12:05:50;;;;;;;1.63;0.60;;;24.10;37.80;;;;;;5004489;28;20413;-64
2022/04/08 12:08:17;;;;;;;3.38;0.70;;;24.10;38.40;;;;;;5003050;28;20389;-65
2022/04/08 12:10:43;;;;;;;3.65;0.80;;;24.10;38.70;;;;;;5001690;28;20401;-64
2022/04/08 12:13:17;;;;;;;3.45;0.80;;;24.10;39.10;;;;;;4997477;28;20425;-65
2022/04/08 12:15:49;;;;;;;3.35;0.80;;;24.10;38.90;;;;;;5009142;28;20498;-64
2022/04/08 12:18:32;;;;;;;4.57;0.90;;;24.20;39.10;;;;;;4993650;28;20429;-65
2022/04/08 12:21:03;;;;;;;3.93;0.73;;;24.10;38.50;;;;;;4993990;28;20426;-66
2022/04/08 12:23:29;;;;;;;1.65;0.75;;;24.10;38.40;;;;;;4994751;28;20477;-66
2022/04/08 12:25:57;;;;;;;3.78;0.70;;;24.20;38.80;;;;;;4993760;28;20844;-67
2022/04/08 12:28:34;;;;;;;4.88;0.70;;;24.10;38.30;;;;;;4993226;28;20421;-65
2022/04/08 12:31:29;;;;;;;3.92;0.70;;;24.20;38.50;;;;;;4993748;28;20430;-64
2022/04/08 12:33:55;;;;;;;4.20;0.70;;;24.20;38.30;;;;;;4977185;28;20398;-65
2022/04/08 12:36:20;;;;;;;2.50;0.80;;;24.20;38.00;;;;;;4993227;28;20547;-65
2022/04/08 12:38:46;;;;;;;4.07;0.70;;;24.20;38.00;;;;;;4993556;28;20394;-66
2022/04/08 12:41:12;;;;;;;2.73;0.60;;;24.20;37.60;;;;;;4994277;28;20432;-67
2022/04/08 12:43:38;;;;;;;1.90;0.60;;;24.10;37.90;;;;;;4994135;28;20739;-67
2022/04/08 12:46:03;;;;;;;4.63;0.60;;;24.20;38.10;;;;;;4993366;28;20954;-65
2022/04/08 12:48:31;;;;;;;2.83;0.75;;;24.20;38.10;;;;;;4992907;28;20890;-66